Morton Mills, Iowa
Current Conditions -  °F | °C
As of 6:35 AM on Sunday 21 Dec 2014 (Local Time) from KRDK Reporting Station
Haze Haze  
Wind Chill: 30°   Ceiling: 700
Heat Index: 37°   Visibility: 5mi
Dew Point: 37°   Wind: 12mph
Humidity: 100%   Direction: 170°S
Pressure: 29.95"   Gusts: NA
Location:  40.9867°N, 94.9847°W
Report Text: KRDK 211235Z AUTO 17010KT 5SM BR OVC007 03/03 A2995 RMK AO2
Loading
Personal Weather Stations






























Interactive Weather Map New forecast layout! Learn more

10-Day Weather Forecast

Advertisements
Track Severe Weather on mobile